EFKE/KEM METAR and TAF weather

Enter ICAO airport designator
Station Type Date Time Source
EFKE METAR 2019/02/23 17:20 UTC NOAA

EFKE 231720Z AUTO 26006KT CAVOK 04/00 Q1017


Station Type Date Time Source
EFKE Decoded METAR 2019/02/23 17:20 UTC NOAA

Kemi, Finland (EFKE) 65-47N 024-35E
Feb 23, 2019 - 12:20 PM EST / 2019.02.23 1720 UTC
Wind: from the W (260 degrees) at 7 MPH (6 KT):0
Visibility: greater than 7 mile(s):0
Temperature: 39 F (4 C)
Dew Point: 32 F (0 C)
Relative Humidity: 75%
Pressure (altimeter): 30.03 in. Hg (1017 hPa)
ob: EFKE 231720Z AUTO 26006KT CAVOK 04/00 Q1017
cycle: 17

Station Type Date Time Source
EFKE TAF 2015/01/12 15:42 UTC NOAA

TAF EFKE 121433Z 1215/1312 03006KT CAVOK
BECMG 1300/1302 9999 BKN015
FM130400 07008KT 9999 SCT014 BKN018
TEMPO 1304/1312 7000 -SN


Example: see airport list